MMVR/VER METAR and TAF weather

Enter ICAO airport designator
Station Type Date Time Source
MMVR METAR 2020/07/06 03:46 UTC NOAA

MMVR 060346Z 09004KT 7SM SCT010 BKN200 28/25 A2990 RMK 8/108 HZY ISOL TCU


Station Type Date Time Source
MMVR Decoded METAR 2020/07/06 03:46 UTC NOAA

Veracruz / Las Bajadas / General Heriberto Jara, Mexico (MMVR) 19-09N 096-11W
Jul 05, 2020 - 11:46 PM EDT / 2020.07.06 0346 UTC
Wind: from the E (090 degrees) at 5 MPH (4 KT):0
Visibility: 7 mile(s):0
Sky conditions: mostly cloudy
Weather: Towering cumulus clouds observed
Temperature: 82 F (28 C)
Dew Point: 77 F (25 C)
Relative Humidity: 83%
Pressure (altimeter): 29.9 in. Hg (1012 hPa)
ob: MMVR 060346Z 09004KT 7SM SCT010 BKN200 28/25 A2990 RMK 8/108 HZY ISOL TCU
cycle: 4

Station Type Date Time Source
MMVR TAF 2020/07/06 06:57 UTC NOAA

TAF MMVR 060449Z 0606/0706 08005KT P6SM SCT012 BKN200 TX32/0621Z TN24/0612Z
TEMPO 0611/0615 3SM TS RA BKN015CB
FM061600 08010KT P6SM SCT015 SCT250 PROB40 0622/0702 5SM TSRA BKN015CB
FM070200 08005KT 6SM HZ SCT015 BKN070

Example: see airport list